Time;durP1;ratioP1;P1;durP2;ratioP2;P2;SDS_P1;SDS_P2;PMS_P1;PMS_P2;Temp;Humidity;BMP_temperature;BMP_pressure;BME280_temperature;BME280_humidity;BME280_pressure;Samples;Min_cycle;Max_cycle;Signal;HPM_P1;HPM_P2
2022/11/12 00:01:50;;;;;;;3.13;1.73;;;;;;;7.14;100.00;94119.31;5036322;28;20122;-76
2022/11/12 00:04:34;;;;;;;4.72;1.83;;;;;;;7.12;100.00;94115.38;5051279;28;20067;-76
2022/11/12 00:07:18;;;;;;;7.18;3.88;;;;;;;7.07;100.00;94109.00;5035908;28;20106;-76
2022/11/12 00:10:02;;;;;;;9.00;4.32;;;;;;;7.11;100.00;94119.75;5052129;28;20072;-77
2022/11/12 00:12:47;;;;;;;7.78;3.50;;;;;;;7.10;100.00;94112.97;5051396;28;20047;-77
2022/11/12 00:15:31;;;;;;;4.80;2.67;;;;;;;7.09;100.00;94112.19;5050760;28;20560;-77
2022/11/12 00:18:15;;;;;;;3.53;1.70;;;;;;;7.08;100.00;94113.19;5050896;28;20132;-77
2022/11/12 00:21:00;;;;;;;2.50;1.50;;;;;;;7.07;100.00;94110.84;5037133;28;20056;-76
2022/11/12 00:23:44;;;;;;;3.10;1.50;;;;;;;7.03;100.00;94104.47;5050830;28;20071;-77
2022/11/12 00:26:27;;;;;;;2.67;1.40;;;;;;;7.09;100.00;94111.38;5034958;28;20095;-77
2022/11/12 00:29:11;;;;;;;3.47;1.60;;;;;;;7.09;100.00;94100.97;5050336;28;20048;-76
2022/11/12 00:31:55;;;;;;;2.40;1.25;;;;;;;7.11;100.00;94104.13;5051953;28;20056;-77
2022/11/12 00:34:40;;;;;;;2.42;1.40;;;;;;;7.11;100.00;94101.53;5050445;28;20048;-77
2022/11/12 00:37:24;;;;;;;2.47;1.15;;;;;;;7.09;100.00;94101.78;5021592;28;20449;-76
2022/11/12 00:40:08;;;;;;;3.15;1.20;;;;;;;7.07;100.00;94100.41;5034565;28;20052;-77
2022/11/12 00:42:52;;;;;;;1.80;1.23;;;;;;;7.04;100.00;94093.03;5030500;28;20576;-77
2022/11/12 00:45:37;;;;;;;1.95;1.20;;;;;;;7.08;100.00;94096.78;5050414;28;20056;-77
2022/11/12 00:48:21;;;;;;;1.77;1.13;;;;;;;7.08;100.00;94096.78;5055297;28;20038;-77
2022/11/12 00:51:05;;;;;;;1.92;1.20;;;;;;;7.09;100.00;94098.34;5072537;28;20052;-77
2022/11/12 00:53:50;;;;;;;1.52;1.00;;;;;;;7.05;100.00;94095.41;5091003;28;20046;-76
2022/11/12 00:56:34;;;;;;;3.75;1.13;;;;;;;7.06;100.00;94101.41;5090688;28;20046;-76
2022/11/12 00:59:18;;;;;;;2.30;1.10;;;;;;;7.06;100.00;94093.59;5090492;28;20054;-77
2022/11/12 01:02:02;;;;;;;1.85;1.15;;;;;;;7.03;95.99;94092.25;5078896;28;20138;-76
2022/11/12 01:04:47;;;;;;;1.38;0.80;;;;;;;7.02;96.31;94090.66;5085228;28;20103;-77
2022/11/12 01:07:31;;;;;;;3.20;1.30;;;;;;;7.01;96.72;94093.50;5070394;28;20071;-77
2022/11/12 01:10:15;;;;;;;1.83;1.10;;;;;;;7.01;97.71;94098.69;5073049;28;20055;-76
2022/11/12 01:12:59;;;;;;;1.83;1.10;;;;;;;6.99;99.69;94095.53;5075129;28;20113;-77
2022/11/12 01:15:43;;;;;;;1.67;1.15;;;;;;;6.96;100.00;94093.34;5073388;28;20043;-76
2022/11/12 01:18:27;;;;;;;1.35;1.10;;;;;;;6.93;100.00;94086.00;5073478;28;20127;-77
2022/11/12 01:21:12;;;;;;;1.95;1.25;;;;;;;6.96;100.00;94088.13;5066391;28;20048;-76
2022/11/12 01:23:57;;;;;;;1.85;1.13;;;;;;;6.95;100.00;94078.75;5085933;28;20051;-77
2022/11/12 01:26:42;;;;;;;1.30;1.00;;;;;;;6.89;100.00;94070.06;5078921;28;20149;-77
2022/11/12 01:29:26;;;;;;;2.28;1.08;;;;;;;6.91;100.00;94067.19;5078362;28;20558;-76
2022/11/12 01:32:10;;;;;;;1.98;1.10;;;;;;;6.88;100.00;94074.44;5094450;28;20089;-76
2022/11/12 01:34:54;;;;;;;1.05;0.85;;;;;;;6.85;100.00;94072.28;5073530;28;20110;-76
2022/11/12 01:37:38;;;;;;;1.08;0.80;;;;;;;6.85;99.42;94072.28;5057592;28;20104;-77
2022/11/12 01:40:22;;;;;;;1.00;0.90;;;;;;;6.84;99.45;94064.69;5073989;28;20406;-77
2022/11/12 01:43:12;;;;;;;1.30;0.90;;;;;;;6.82;99.09;94059.75;5058668;28;20054;-77
2022/11/12 01:46:00;;;;;;;1.38;1.02;;;;;;;6.80;99.18;94051.34;5073458;28;20056;-77
2022/11/12 01:48:52;;;;;;;3.30;1.05;;;;;;;6.84;97.97;94047.25;5073775;28;20074;-77
2022/11/12 01:51:40;;;;;;;1.73;1.00;;;;;;;6.87;98.05;94044.22;5073647;28;20090;-77
2022/11/12 01:54:25;;;;;;;1.13;0.80;;;;;;;6.88;97.64;94042.41;5085447;28;20056;-77
2022/11/12 01:57:12;;;;;;;1.75;1.00;;;;;;;6.89;96.16;94038.81;5038438;28;20052;-76
2022/11/12 02:00:03;;;;;;;1.10;0.90;;;;;;;6.86;96.89;94034.81;5053018;28;20052;-77
2022/11/12 02:02:53;;;;;;;1.73;1.00;;;;;;;6.88;97.08;94037.22;5053267;28;20095;-77
2022/11/12 02:05:39;;;;;;;1.40;0.80;;;;;;;6.93;96.79;94039.13;5064372;28;20196;-76
2022/11/12 02:08:24;;;;;;;1.45;0.93;;;;;;;6.96;96.43;94036.06;5058165;28;20093;-77
2022/11/12 02:11:12;;;;;;;2.22;0.98;;;;;;;6.98;95.49;94034.03;5072796;28;20643;-77
2022/11/12 02:13:57;;;;;;;1.23;1.10;;;;;;;6.94;95.17;94032.94;5087319;28;20047;-77
2022/11/12 02:16:44;;;;;;;2.58;1.00;;;;;;;6.95;94.42;94032.69;5093531;28;20059;-77
2022/11/12 02:19:28;;;;;;;1.48;1.00;;;;;;;6.94;94.35;94031.13;5071235;28;20090;-77
2022/11/12 02:22:12;;;;;;;2.55;1.25;;;;;;;6.96;94.88;94038.69;5043010;28;20091;-77
2022/11/12 02:24:56;;;;;;;1.73;1.00;;;;;;;6.98;96.48;94031.44;5092482;28;20146;-77
2022/11/12 02:27:40;;;;;;;1.80;1.15;;;;;;;6.97;96.81;94029.88;5071380;28;20094;-77
2022/11/12 02:30:34;;;;;;;2.70;1.20;;;;;;;6.94;96.34;94014.69;5072797;28;20063;-76
2022/11/12 02:33:19;;;;;;;1.85;1.20;;;;;;;6.92;96.19;94014.13;5075135;28;20122;-76
2022/11/12 02:36:03;;;;;;;3.10;1.20;;;;;;;6.99;95.77;94014.81;5084761;28;20066;-76
2022/11/12 02:38:47;;;;;;;3.38;1.13;;;;;;;6.98;95.85;94008.81;5057576;28;20479;-76
2022/11/12 02:41:31;;;;;;;2.60;1.48;;;;;;;6.97;96.20;94009.03;5072938;28;20444;-76
2022/11/12 02:44:15;;;;;;;2.53;0.98;;;;;;;6.97;95.92;94012.44;5078703;28;20055;-77
2022/11/12 02:46:59;;;;;;;0.98;0.77;;;;;;;6.94;95.41;94004.28;5089935;28;20165;-77
2022/11/12 02:49:43;;;;;;;1.13;1.00;;;;;;;6.95;95.75;94021.47;5057115;28;20425;-76
2022/11/12 02:52:27;;;;;;;1.30;1.00;;;;;;;6.95;95.56;94005.84;5055096;28;20061;-76
2022/11/12 02:55:12;;;;;;;1.17;0.80;;;;;;;6.93;95.91;93998.28;5075619;28;20056;-77
2022/11/12 02:57:57;;;;;;;3.60;1.10;;;;;;;6.91;95.44;93996.91;5072283;28;20133;-76
2022/11/12 03:00:41;;;;;;;1.42;0.85;;;;;;;6.94;94.67;94004.28;5072364;28;20051;-76
2022/11/12 03:03:25;;;;;;;1.40;0.98;;;;;;;6.97;93.90;93990.81;5072326;28;20426;-76
2022/11/12 03:06:09;;;;;;;1.42;1.00;;;;;;;6.99;93.76;93997.38;5087011;28;20122;-77
2022/11/12 03:08:53;;;;;;;1.13;0.90;;;;;;;6.98;94.23;93994.97;5088842;28;20552;-77
2022/11/12 03:11:37;;;;;;;1.10;1.00;;;;;;;6.98;94.76;93987.19;5072563;28;20071;-76
2022/11/12 03:14:21;;;;;;;1.95;1.20;;;;;;;7.00;94.33;93983.34;5072258;28;20051;-75
2022/11/12 03:17:05;;;;;;;1.13;1.00;;;;;;;7.03;94.71;93980.28;5070743;28;20098;-77
2022/11/12 03:19:48;;;;;;;1.73;1.00;;;;;;;7.04;94.82;93976.66;5071689;28;20123;-77
2022/11/12 03:22:32;;;;;;;1.77;1.13;;;;;;;7.05;94.76;93970.44;5056606;28;20109;-76
2022/11/12 03:25:16;;;;;;;1.20;1.00;;;;;;;7.06;94.71;93972.00;5057198;28;20094;-77
2022/11/12 03:28:07;;;;;;;2.42;0.85;;;;;;;7.08;94.08;93974.38;5078942;28;20194;-77
2022/11/12 03:30:56;;;;;;;1.33;1.00;;;;;;;7.07;93.90;93973.59;5056807;28;20063;-76
2022/11/12 03:33:40;;;;;;;2.47;1.40;;;;;;;7.05;94.06;93975.66;5070443;28;20091;-77
2022/11/12 03:36:24;;;;;;;1.13;1.00;;;;;;;7.04;93.82;93974.03;5067117;28;20050;-77
2022/11/12 03:39:08;;;;;;;1.38;0.95;;;;;;;7.02;94.12;93964.88;5076200;28;20047;-77
2022/11/12 03:41:52;;;;;;;0.63;0.63;;;;;;;7.05;94.19;93969.66;5076602;28;20050;-77
2022/11/12 03:44:36;;;;;;;0.90;0.80;;;;;;;7.06;93.70;93976.44;5091326;28;20535;-76
2022/11/12 03:47:20;;;;;;;1.38;0.90;;;;;;;7.07;93.82;93970.22;5081246;28;20089;-76
2022/11/12 03:50:05;;;;;;;1.50;1.08;;;;;;;7.11;93.96;93971.31;5071161;28;20086;-76
2022/11/12 03:52:52;;;;;;;3.13;1.20;;;;;;;7.12;94.62;93978.13;5051297;28;20525;-77
2022/11/12 03:55:36;;;;;;;1.08;0.90;;;;;;;7.14;94.25;93968.28;5051247;28;20048;-77
2022/11/12 03:58:20;;;;;;;1.23;1.08;;;;;;;7.14;93.28;93965.69;5053047;28;20493;-76
2022/11/12 04:01:04;;;;;;;0.95;0.80;;;;;;;7.15;92.63;93964.63;5051254;28;20478;-76
2022/11/12 04:03:49;;;;;;;2.90;1.60;;;;;;;7.16;91.88;93966.25;5051373;28;20102;-76
2022/11/12 04:09:35;;;;;;;0.93;0.88;;;;;;;7.25;89.69;93970.06;5071269;28;20096;-76
2022/11/12 04:15:22;;;;;;;1.42;1.00;;;;;;;7.28;89.49;93956.59;5071389;28;20105;-77
2022/11/12 04:27:32;;;;;;;1.35;1.10;;;;;;;7.40;87.76;93945.34;5071481;28;20087;-76
2022/11/12 04:30:18;;;;;;;1.40;1.05;;;;;;;7.42;87.55;93940.69;5071613;28;20126;-77
2022/11/12 04:33:02;;;;;;;1.10;0.95;;;;;;;7.41;87.71;93942.53;5070975;28;20051;-76
2022/11/12 04:35:46;;;;;;;1.02;0.82;;;;;;;7.39;86.82;93939.34;5071106;28;20048;-76
2022/11/12 04:38:30;;;;;;;3.15;0.90;;;;;;;7.37;85.55;93938.00;5040806;28;20048;-77
2022/11/12 04:47:20;;;;;;;1.02;0.90;;;;;;;7.39;83.43;93943.78;5074949;28;20532;-77
2022/11/12 04:50:07;;;;;;;1.25;0.90;;;;;;;7.40;83.16;93945.34;5069103;28;20047;-76
2022/11/12 04:52:52;;;;;;;0.85;0.75;;;;;;;7.38;83.76;93936.97;5095090;28;20078;-76
2022/11/12 04:55:35;;;;;;;1.15;0.90;;;;;;;7.45;83.53;93942.84;5073926;28;20051;-77
2022/11/12 04:58:20;;;;;;;0.63;0.63;;;;;;;7.47;83.42;93940.78;5058427;28;20586;-76
2022/11/12 05:01:04;;;;;;;1.48;0.90;;;;;;;7.51;83.42;93932.28;5061052;28;20058;-76
2022/11/12 05:03:48;;;;;;;2.22;1.10;;;;;;;7.54;83.98;93931.03;5059597;28;20110;-76
2022/11/12 05:06:51;;;;;;;1.25;0.85;;;;;;;7.53;84.40;93928.66;5074622;28;20126;-76
2022/11/12 05:09:35;;;;;;;1.15;0.90;;;;;;;7.55;84.89;93921.41;5074436;28;20059;-76
2022/11/12 05:12:20;;;;;;;3.42;1.20;;;;;;;7.58;85.35;93932.16;5073686;28;20083;-77
2022/11/12 05:15:04;;;;;;;2.08;0.95;;;;;;;7.56;86.34;93931.59;5061789;28;20055;-77
2022/11/12 05:17:48;;;;;;;0.80;0.80;;;;;;;7.58;86.28;93924.34;5054367;28;20044;-76
2022/11/12 05:20:34;;;;;;;2.00;1.17;;;;;;;7.57;86.90;93925.38;5043737;28;20071;-77
2022/11/12 05:23:19;;;;;;;2.72;0.93;;;;;;;7.58;87.29;93929.53;5073867;28;20051;-76
2022/11/12 05:26:03;;;;;;;1.00;0.90;;;;;;;7.60;87.67;93924.91;5054196;28;20071;-76
2022/11/12 05:28:47;;;;;;;1.05;0.93;;;;;;;7.60;85.70;93919.69;5054072;28;20119;-77
2022/11/12 05:31:31;;;;;;;1.10;1.00;;;;;;;7.64;85.26;93920.03;5063494;28;20064;-76
2022/11/12 05:34:15;;;;;;;1.40;0.90;;;;;;;7.65;85.62;93922.38;5074183;28;20048;-76
2022/11/12 05:37:02;;;;;;;0.80;0.80;;;;;;;7.65;85.67;93924.97;5074241;28;20044;-77
2022/11/12 05:39:46;;;;;;;2.58;1.05;;;;;;;7.64;86.13;93918.19;5073395;28;20462;-76
2022/11/12 05:42:29;;;;;;;1.17;0.98;;;;;;;7.62;86.45;93915.03;5053164;28;20101;-77
2022/11/12 05:45:14;;;;;;;1.00;0.90;;;;;;;7.60;85.96;93914.47;5058509;28;20059;-77
2022/11/12 05:47:58;;;;;;;1.02;0.73;;;;;;;7.58;86.20;93910.53;5073905;28;20052;-76
2022/11/12 05:50:42;;;;;;;1.40;1.00;;;;;;;7.59;84.95;93912.09;5043701;28;20089;-76
2022/11/12 05:53:26;;;;;;;1.55;0.88;;;;;;;7.59;83.86;93909.47;5089227;28;20455;-77
2022/11/12 05:56:11;;;;;;;1.77;0.90;;;;;;;7.62;82.81;93917.63;5061754;28;20097;-77
2022/11/12 05:58:56;;;;;;;1.25;0.90;;;;;;;7.63;82.24;93911.41;5055193;28;20385;-76
2022/11/12 06:01:43;;;;;;;1.05;0.90;;;;;;;7.63;81.75;93910.59;5073618;28;20113;-77
2022/11/12 06:04:28;;;;;;;1.13;0.88;;;;;;;7.61;81.07;93905.66;5051500;28;20051;-78
2022/11/12 06:07:12;;;;;;;1.17;0.80;;;;;;;7.68;80.38;93921.94;5083818;28;20054;-78
2022/11/12 06:09:56;;;;;;;0.82;0.82;;;;;;;7.69;80.70;93907.88;5061593;28;20182;-76
2022/11/12 06:12:41;;;;;;;2.53;1.00;;;;;;;7.73;80.47;93910.81;5077148;28;20056;-77
2022/11/12 06:15:28;;;;;;;1.27;0.88;;;;;;;7.74;79.96;93914.19;5066285;28;20105;-77
2022/11/12 06:18:12;;;;;;;1.63;0.93;;;;;;;7.75;80.70;93921.00;5071822;28;20055;-77
2022/11/12 06:21:21;;;;;;;2.10;0.90;;;;;;;7.76;82.10;93914.75;5086204;28;20437;-77
2022/11/12 06:24:05;;;;;;;1.55;0.88;;;;;;;7.75;83.10;93911.38;5072429;28;20055;-77
2022/11/12 06:26:49;;;;;;;0.70;0.70;;;;;;;7.76;82.40;93917.38;5067254;28;20128;-77
2022/11/12 06:29:33;;;;;;;0.73;0.70;;;;;;;7.71;78.58;93908.41;5072925;28;20127;-77
2022/11/12 06:32:17;;;;;;;0.77;0.77;;;;;;;7.75;75.39;93924.41;5073114;28;20397;-76
2022/11/12 06:35:02;;;;;;;2.78;0.80;;;;;;;7.78;75.75;93915.31;5074054;28;20071;-76
2022/11/12 06:37:47;;;;;;;1.08;0.88;;;;;;;7.81;77.55;93930.47;5073019;28;20055;-77
2022/11/12 06:40:31;;;;;;;1.85;0.80;;;;;;;7.84;79.03;93922.22;5072670;28;20579;-77
2022/11/12 06:43:15;;;;;;;1.27;0.98;;;;;;;7.87;80.16;93924.34;5052549;28;20107;-77
2022/11/12 06:46:05;;;;;;;1.58;0.90;;;;;;;7.89;79.66;93930.13;5071414;28;20120;-77
2022/11/12 06:48:49;;;;;;;1.02;0.65;;;;;;;7.90;79.18;93929.91;5071785;28;20044;-76
2022/11/12 06:51:33;;;;;;;0.80;0.80;;;;;;;7.92;78.82;93929.63;5057103;28;20055;-76
2022/11/12 06:54:18;;;;;;;105.93;61.03;;;;;;;7.99;78.58;93935.50;5070692;28;20111;-77
2022/11/12 06:57:02;;;;;;;58.58;36.67;;;;;;;8.02;77.18;93935.03;5075299;28;20108;-76
2022/11/12 06:59:46;;;;;;;44.00;30.58;;;;;;;8.10;75.66;93939.88;5072140;28;20056;-77
2022/11/12 07:02:30;;;;;;;15.40;11.95;;;;;;;8.18;75.23;93935.31;5056905;28;20135;-77
2022/11/12 07:05:14;;;;;;;5.93;3.90;;;;;;;8.23;75.31;93932.78;5072155;28;20102;-76
2022/11/12 07:07:58;;;;;;;4.18;2.47;;;;;;;8.29;74.83;93934.47;5051812;28;20056;-77
2022/11/12 07:10:42;;;;;;;7.70;4.53;;;;;;;8.38;75.02;93929.66;5053292;28;20105;-77
2022/11/12 07:13:29;;;;;;;7.55;5.28;;;;;;;8.46;74.66;93930.03;5051857;28;20040;-77
2022/11/12 07:16:17;;;;;;;7.95;5.30;;;;;;;8.52;74.03;93930.94;5044079;28;20085;-77
2022/11/12 07:19:01;;;;;;;8.70;4.50;;;;;;;8.60;73.30;93930.53;5094246;28;20093;-78
2022/11/12 07:21:45;;;;;;;6.07;3.60;;;;;;;8.69;73.64;93930.91;5082605;28;20414;-78
2022/11/12 07:24:29;;;;;;;5.47;3.50;;;;;;;8.75;74.30;93930.75;5061707;28;20039;-78
2022/11/12 07:27:13;;;;;;;4.78;2.35;;;;;;;8.80;74.49;93922.19;5044820;28;20055;-77
2022/11/12 07:29:58;;;;;;;5.57;2.40;;;;;;;8.92;74.84;93927.34;5077292;28;20173;-78
2022/11/12 07:32:42;;;;;;;3.28;1.83;;;;;;;9.01;74.36;93933.72;5088699;28;20406;-80
2022/11/12 07:35:26;;;;;;;3.05;1.73;;;;;;;9.09;73.93;93928.09;5075864;28;20101;-78
2022/11/12 07:38:10;;;;;;;2.78;1.67;;;;;;;9.21;73.43;93932.41;5074368;28;20128;-79
2022/11/12 07:41:04;;;;;;;5.45;1.80;;;;;;;9.27;72.37;93921.78;5071291;28;20448;-78
2022/11/12 07:43:51;;;;;;;3.45;1.90;;;;;;;9.36;72.35;93924.75;5049499;28;20154;-77
2022/11/12 07:46:35;;;;;;;4.55;2.30;;;;;;;9.42;72.44;93926.41;5076510;28;20416;-77
2022/11/12 07:49:19;;;;;;;6.63;3.05;;;;;;;9.49;73.31;93934.06;5066485;28;20510;-77
2022/11/12 07:52:03;;;;;;;26.60;12.23;;;;;;;9.53;74.32;93929.94;5073745;28;20135;-77
2022/11/12 07:54:47;;;;;;;15.90;6.22;;;;;;;9.61;75.31;93921.66;5058590;28;20131;-77
2022/11/12 07:57:32;;;;;;;14.75;6.75;;;;;;;9.67;74.49;93920.69;5071055;28;20405;-77
2022/11/12 08:00:17;;;;;;;14.35;7.20;;;;;;;9.73;74.40;93921.53;5058641;28;20054;-77
2022/11/12 08:03:02;;;;;;;55.92;25.45;;;;;;;9.80;73.93;93916.91;5074251;28;20052;-78
2022/11/12 08:05:46;;;;;;;65.90;38.10;;;;;;;9.89;73.23;93917.25;5075562;28;20051;-78
2022/11/12 08:08:31;;;;;;;19.33;11.15;;;;;;;9.97;73.01;93906.34;5075858;28;20052;-79
2022/11/12 08:11:15;;;;;;;13.68;8.57;;;;;;;10.07;72.79;93906.44;5065026;28;20147;-77
2022/11/12 08:14:00;;;;;;;7.00;4.38;;;;;;;10.17;73.03;93911.75;5068568;28;20051;-77
2022/11/12 08:16:45;;;;;;;3.53;1.90;;;;;;;10.28;73.83;93914.47;5056695;28;20055;-77
2022/11/12 08:19:29;;;;;;;3.13;1.60;;;;;;;10.37;74.55;93913.00;5071581;28;20129;-79
2022/11/12 08:22:14;;;;;;;4.60;2.65;;;;;;;10.49;74.78;93916.25;5065621;28;20075;-78
2022/11/12 08:24:58;;;;;;;6.78;3.88;;;;;;;10.58;73.77;93909.53;5056412;28;20051;-78
2022/11/12 08:27:42;;;;;;;7.38;4.43;;;;;;;10.68;72.39;93908.78;5052365;28;20528;-78
2022/11/12 08:30:28;;;;;;;7.88;4.50;;;;;;;10.80;72.21;93913.84;5059960;28;20097;-78
2022/11/12 08:33:12;;;;;;;4.40;2.55;;;;;;;10.91;72.33;93907.63;5054258;28;20048;-77
2022/11/12 08:35:56;;;;;;;8.32;4.40;;;;;;;11.02;73.18;93904.03;5058092;28;20043;-77
2022/11/12 08:38:41;;;;;;;7.75;5.50;;;;;;;11.14;73.53;93908.28;5070589;28;20410;-78
2022/11/12 08:41:25;;;;;;;10.15;6.45;;;;;;;11.27;74.50;93899.16;5069034;28;20097;-78
2022/11/12 08:44:09;;;;;;;5.25;2.63;;;;;;;11.36;74.18;93895.78;5046815;28;20052;-78
2022/11/12 08:46:53;;;;;;;3.40;1.73;;;;;;;11.49;72.49;93896.38;5056701;28;20532;-77
2022/11/12 08:49:38;;;;;;;5.10;3.15;;;;;;;11.62;71.63;93895.91;5036789;28;20659;-77
2022/11/12 08:52:22;;;;;;;4.85;2.47;;;;;;;11.72;71.07;93895.13;5067005;28;20093;-77
2022/11/12 08:55:07;;;;;;;3.08;1.73;;;;;;;11.86;72.23;93901.47;5056844;28;20043;-78
2022/11/12 08:57:51;;;;;;;4.13;1.70;;;;;;;12.00;73.67;93896.53;5053549;28;20044;-78
2022/11/12 09:00:38;;;;;;;3.85;1.40;;;;;;;12.13;73.14;93895.25;5056072;28;20128;-77
2022/11/12 09:03:24;;;;;;;5.43;2.40;;;;;;;12.24;72.13;93891.59;5070438;28;20067;-77
2022/11/12 09:06:08;;;;;;;2.88;1.58;;;;;;;12.36;70.88;93896.56;5052285;28;20055;-78
2022/11/12 09:08:52;;;;;;;1.60;1.20;;;;;;;12.50;70.13;93900.25;5052771;28;20095;-78
2022/11/12 09:11:37;;;;;;;1.83;1.20;;;;;;;12.63;69.47;93898.94;5038487;28;20051;-77
2022/11/12 09:14:21;;;;;;;3.08;1.20;;;;;;;12.76;68.86;93887.88;5062315;28;20089;-78
2022/11/12 09:17:05;;;;;;;1.35;1.00;;;;;;;12.91;68.30;93894.97;5073834;28;20171;-78
2022/11/12 09:19:49;;;;;;;4.28;1.73;;;;;;;13.05;67.91;93895.97;5057746;28;20064;-77
2022/11/12 09:22:33;;;;;;;3.17;1.17;;;;;;;13.23;65.92;93880.69;5056413;28;20055;-78
2022/11/12 09:25:37;;;;;;;12.35;3.00;;;;;;;13.37;64.08;93891.44;5066655;28;20050;-78
2022/11/12 09:28:21;;;;;;;3.85;1.50;;;;;;;13.43;60.14;93872.75;5090771;28;20098;-77
2022/11/12 09:31:07;;;;;;;4.82;1.70;;;;;;;13.51;59.08;93874.84;5043473;28;20127;-78
2022/11/12 09:33:54;;;;;;;8.32;2.13;;;;;;;13.60;56.50;93874.25;5060129;28;20059;-78
2022/11/12 09:36:38;;;;;;;4.60;1.55;;;;;;;13.66;56.14;93875.81;5060110;28;20043;-78
2022/11/12 09:39:22;;;;;;;3.13;1.10;;;;;;;13.73;56.40;93868.41;5058878;28;20060;-78
2022/11/12 09:42:13;;;;;;;2.78;1.05;;;;;;;13.85;57.01;93873.34;5058808;28;20080;-78
2022/11/12 09:45:17;;;;;;;2.53;1.00;;;;;;;14.01;61.80;93890.63;5043279;28;20063;-77
2022/11/12 09:48:07;;;;;;;3.05;0.93;;;;;;;14.00;62.25;93885.63;5058195;28;20124;-78
2022/11/12 09:51:18;;;;;;;0.95;0.80;;;;;;;14.16;55.51;93881.81;5065773;28;20086;-78
2022/11/12 09:54:26;;;;;;;1.27;1.00;;;;;;;14.27;56.30;93882.53;5062929;28;20039;-78
2022/11/12 09:57:12;;;;;;;1.73;0.93;;;;;;;14.42;55.50;93879.81;5079006;28;20083;-78
2022/11/12 09:59:57;;;;;;;3.53;1.40;;;;;;;14.53;58.51;93880.50;5075118;28;20094;-78
2022/11/12 10:10:52;;;;;;;0.90;0.80;;;;;;;15.21;60.96;93863.81;5051857;28;20083;-77
2022/11/12 10:13:36;;;;;;;;;;;;;;;15.50;61.09;93861.09;5061376;28;20048;-78
2022/11/12 10:16:45;;;;;;;0.73;0.73;;;;;;;15.72;54.86;93857.94;5063845;28;20000;-78
2022/11/12 10:19:59;;;;;;;1.40;1.00;;;;;;;15.98;53.85;93839.88;5077055;28;20159;-77
2022/11/12 10:22:55;;;;;;;1.92;1.30;;;;;;;16.21;54.91;93837.44;5052666;28;20402;-79
2022/11/12 10:25:43;;;;;;;1.30;0.85;;;;;;;16.33;54.85;93840.44;5063498;28;20182;-79
2022/11/12 10:28:32;;;;;;;1.70;1.13;;;;;;;16.53;53.04;93834.03;5070151;28;20363;-77
2022/11/12 10:31:18;;;;;;;5.95;1.50;;;;;;;16.48;57.85;93823.53;5056155;28;20079;-78
2022/11/12 10:38:00;;;;;;;1.40;0.85;;;;;;;16.21;49.40;93817.09;5058567;28;20071;-78
2022/11/12 10:41:23;;;;;;;4.88;1.60;;;;;;;16.24;47.78;93826.31;5057273;28;20086;-78
2022/11/12 10:44:13;;;;;;;25.80;4.15;;;;;;;16.26;44.34;93824.16;5072293;28;20043;-78
2022/11/12 10:47:42;;;;;;;1.88;0.90;;;;;;;16.30;42.85;93819.06;5062530;28;20051;-78
2022/11/12 10:50:40;;;;;;;3.08;1.05;;;;;;;16.26;47.51;93824.16;5042032;28;20048;-78
2022/11/12 10:53:39;;;;;;;1.30;1.08;;;;;;;16.34;47.77;93820.84;5077068;28;20126;-78
2022/11/12 10:56:29;;;;;;;2.85;1.30;;;;;;;16.11;50.20;93817.25;5078640;28;20131;-78
2022/11/12 10:59:23;;;;;;;1.00;0.82;;;;;;;16.16;49.06;93800.53;5060267;28;20046;-78
2022/11/12 11:02:17;;;;;;;1.35;0.88;;;;;;;16.31;48.46;93795.00;5061120;28;20137;-78
2022/11/12 11:05:41;;;;;;;1.75;1.00;;;;;;;16.47;50.17;93789.47;5068430;28;20048;-78
2022/11/12 11:08:43;;;;;;;2.85;0.85;;;;;;;16.70;49.28;93785.09;5069935;28;20082;-78
2022/11/12 11:11:50;;;;;;;2.60;1.00;;;;;;;16.70;48.57;93785.09;5081673;28;20435;-78
2022/11/12 11:14:34;;;;;;;1.63;1.00;;;;;;;16.50;49.36;93778.31;5062747;28;20043;-78
2022/11/12 11:17:18;;;;;;;1.33;0.85;;;;;;;16.28;47.84;93786.88;5074888;28;20567;-79
2022/11/12 11:20:05;;;;;;;1.50;0.70;;;;;;;16.03;43.15;93776.44;5075538;28;20143;-79
2022/11/12 11:22:55;;;;;;;1.02;0.80;;;;;;;16.02;46.12;93774.84;5084208;28;20058;-78
2022/11/12 11:25:42;;;;;;;1.35;0.70;;;;;;;16.12;47.23;93775.75;5074526;28;20047;-78
2022/11/12 11:28:41;;;;;;;17.92;13.85;;;;;;;16.09;48.15;93756.00;5055540;28;20051;-78
2022/11/12 11:31:47;;;;;;;4.15;2.00;;;;;;;16.12;51.19;93746.72;5051538;28;20086;-78
2022/11/12 11:35:28;;;;;;;3.30;1.58;;;;;;;16.14;49.70;93752.50;5064973;28;20079;-78
2022/11/12 11:38:34;;;;;;;2.70;1.58;;;;;;;16.10;50.34;93762.88;5055125;28;20074;-78
2022/11/12 11:41:39;;;;;;;4.97;1.40;;;;;;;15.87;49.02;93759.25;5052940;28;20087;-77
2022/11/12 11:44:50;;;;;;;3.95;1.90;;;;;;;15.84;52.86;93754.56;5054065;28;20048;-77
2022/11/12 11:47:57;;;;;;;3.20;1.52;;;;;;;15.96;54.72;93746.19;5053248;28;20052;-77
2022/11/12 11:51:01;;;;;;;7.68;2.20;;;;;;;16.09;53.74;93736.72;5057546;28;20035;-76
2022/11/12 11:54:12;;;;;;;2.35;1.40;;;;;;;16.30;53.25;93734.53;5058836;28;20409;-78
2022/11/12 11:56:59;;;;;;;1.73;1.10;;;;;;;16.45;50.60;93729.75;5073929;28;20097;-77
2022/11/12 11:59:46;;;;;;;1.33;1.02;;;;;;;16.59;48.08;93715.75;5075378;28;20055;-78
2022/11/12 12:02:53;;;;;;;3.90;1.23;;;;;;;16.75;51.83;93711.78;5071325;28;20039;-78
2022/11/12 12:05:55;;;;;;;2.72;1.20;;;;;;;16.81;51.60;93707.19;5050487;28;20068;-77
2022/11/12 12:08:50;;;;;;;;;;;;;;;16.67;42.75;93711.69;5071336;28;20162;-78
2022/11/12 12:11:43;;;;;;;1.33;0.90;;;;;;;16.58;43.86;93708.94;5058412;28;19935;-77
2022/11/12 12:14:31;;;;;;;2.90;0.95;;;;;;;16.63;45.73;93703.53;5092239;28;20135;-78
2022/11/12 12:17:37;;;;;;;1.70;0.90;;;;;;;16.77;46.35;93701.66;5095749;28;20583;-77
2022/11/12 12:20:39;;;;;;;2.00;1.05;;;;;;;16.90;47.99;93705.41;5081681;28;20094;-78
2022/11/12 12:23:44;;;;;;;1.93;1.20;;;;;;;17.06;49.65;93703.25;5073297;28;20532;-77
2022/11/12 12:26:40;;;;;;;1.30;0.90;;;;;;;17.27;48.95;93699.09;5060616;28;20043;-77
2022/11/12 12:29:36;;;;;;;3.90;1.08;;;;;;;17.24;47.00;93707.59;5067698;28;20501;-77
2022/11/12 12:32:37;;;;;;;1.23;0.73;;;;;;;16.96;45.29;93698.94;5057250;28;20075;-76
2022/11/12 12:35:26;;;;;;;3.67;2.00;;;;;;;16.79;43.75;93704.03;5069926;28;20093;-78
2022/11/12 12:38:26;;;;;;;1.88;1.15;;;;;;;16.64;39.26;93697.19;5066420;28;20043;-75
2022/11/12 12:41:28;;;;;;;1.98;1.20;;;;;;;16.71;46.42;93681.72;5056378;28;20044;-76
2022/11/12 12:44:12;;;;;;;15.27;7.05;;;;;;;16.78;47.99;93684.72;5069759;28;20078;-78
2022/11/12 12:46:59;;;;;;;15.57;7.30;;;;;;;16.85;49.71;93669.28;5031084;28;20057;-76
2022/11/12 12:49:45;;;;;;;23.67;10.65;;;;;;;16.92;50.07;93662.81;5046908;28;20064;-76
2022/11/12 12:52:29;;;;;;;13.38;6.57;;;;;;;16.96;47.48;93656.63;5030818;28;20183;-76
2022/11/12 12:55:40;;;;;;;32.15;15.27;;;;;;;17.01;46.15;93650.44;5053210;28;20071;-76
2022/11/12 12:58:28;;;;;;;37.17;20.13;;;;;;;17.04;44.22;93649.84;5019701;28;20446;-76
2022/11/12 13:01:24;;;;;;;6.28;2.83;;;;;;;17.03;49.24;93651.72;5039608;28;20048;-76
2022/11/12 13:04:09;;;;;;;2.63;1.30;;;;;;;16.72;46.80;93658.69;5038120;28;20585;-76
2022/11/12 13:06:54;;;;;;;2.45;1.17;;;;;;;16.47;45.04;93657.34;5061846;28;20098;-80
2022/11/12 13:09:38;;;;;;;2.10;1.17;;;;;;;16.26;50.48;93655.06;5047718;28;20095;-76
2022/11/12 13:13:00;;;;;;;1.55;1.10;;;;;;;16.24;49.26;93641.38;5038538;28;20423;-76
2022/11/12 13:15:46;;;;;;;2.05;1.10;;;;;;;16.28;48.81;93636.28;5033422;28;20572;-77
2022/11/12 13:18:36;;;;;;;10.13;5.70;;;;;;;16.33;49.18;93633.56;5049320;28;20059;-77
2022/11/12 13:21:21;;;;;;;9.85;5.35;;;;;;;16.44;48.83;93627.00;5035999;28;20522;-77
2022/11/12 13:24:11;;;;;;;5.88;3.20;;;;;;;16.54;48.91;93623.34;5053860;28;20120;-76
2022/11/12 13:26:59;;;;;;;4.13;2.03;;;;;;;16.70;49.40;93621.97;5053091;28;20121;-76
2022/11/12 13:29:45;;;;;;;12.15;6.60;;;;;;;16.79;50.03;93620.22;5061019;28;20623;-76
2022/11/12 13:32:33;;;;;;;2.67;1.20;;;;;;;16.81;48.32;93620.69;5038575;28;20055;-76
2022/11/12 13:35:26;;;;;;;2.03;1.00;;;;;;;16.44;48.28;93609.28;5053900;28;20048;-76
2022/11/12 13:38:14;;;;;;;2.08;1.20;;;;;;;16.13;49.42;93613.59;5053743;28;20537;-76
2022/11/12 13:41:10;;;;;;;2.97;1.25;;;;;;;15.93;51.06;93607.59;5041172;28;20071;-76
2022/11/12 13:43:55;;;;;;;2.85;1.30;;;;;;;15.86;51.93;93601.91;5041310;28;20573;-77
2022/11/12 13:46:40;;;;;;;6.18;3.42;;;;;;;15.80;53.56;93601.22;5086780;28;20469;-77
2022/11/12 13:49:24;;;;;;;5.75;2.80;;;;;;;15.76;55.87;93594.16;5058074;28;20052;-76